Time;durP1;ratioP1;P1;durP2;ratioP2;P2;SDS_P1;SDS_P2;PMS_P1;PMS_P2;Temp;Humidity;BMP_temperature;BMP_pressure;BME280_temperature;BME280_humidity;BME280_pressure;Samples;Min_cycle;Max_cycle;Signal;HPM_P1;HPM_P2
2022/11/13 00:00:06;;;;;;;16.27;9.45;;;;;;;8.69;81.60;100610.72;344303;28;1522;-77
2022/11/13 00:00:18;;;;;;;16.83;9.38;;;;;;;8.67;81.61;100609.00;343870;28;1214;-77
2022/11/13 00:00:31;;;;;;;16.25;9.80;;;;;;;8.64;81.59;100614.22;344717;28;1588;-77
2022/11/13 00:00:42;;;;;;;13.90;9.80;;;;;;;8.62;81.78;100611.63;344747;28;1079;-77
2022/11/13 00:00:55;;;;;;;14.80;9.70;;;;;;;8.59;82.14;100609.06;344851;28;1039;-77
2022/11/13 00:01:22;;;;;;;18.27;9.90;;;;;;;8.39;82.07;100599.72;344301;28;1846;-77
2022/11/13 00:01:34;;;;;;;19.92;10.20;;;;;;;8.40;82.42;100601.41;342995;28;1451;-77
2022/11/13 00:01:46;;;;;;;19.92;9.90;;;;;;;8.42;82.64;100608.38;343453;28;1107;-77
2022/11/13 00:01:58;;;;;;;22.60;9.73;;;;;;;8.33;82.63;100607.53;341934;28;1953;-77
2022/11/13 00:02:10;;;;;;;23.20;10.38;;;;;;;8.33;82.77;100602.34;342780;28;1750;-77
2022/11/13 00:02:22;;;;;;;18.83;10.38;;;;;;;8.36;82.93;100604.91;341239;28;1715;-77
2022/11/13 00:02:34;;;;;;;18.65;10.27;;;;;;;8.39;82.76;100604.91;341958;28;1942;-77
2022/11/13 00:02:46;;;;;;;20.00;10.38;;;;;;;8.34;82.74;100603.22;342046;28;1298;-77
2022/11/13 00:02:58;;;;;;;17.20;10.02;;;;;;;8.33;82.96;100604.06;342122;28;1079;-77
2022/11/13 00:03:10;;;;;;;16.70;10.05;;;;;;;8.38;82.80;100604.91;342178;28;1887;-77
2022/11/13 00:03:23;;;;;;;18.20;10.32;;;;;;;8.32;83.02;100603.22;340834;29;1751;-77
2022/11/13 00:03:35;;;;;;;18.88;10.43;;;;;;;8.26;83.05;100600.69;340741;29;1285;-77
2022/11/13 00:03:47;;;;;;;18.60;10.45;;;;;;;8.24;82.99;100604.16;339321;29;1243;-77
2022/11/13 00:03:59;;;;;;;20.83;10.20;;;;;;;8.22;83.05;100598.97;341226;28;1019;-77
2022/11/13 00:04:11;;;;;;;21.20;9.93;;;;;;;8.24;83.20;100597.25;342379;28;1226;-77
2022/11/13 00:04:23;;;;;;;20.45;9.77;;;;;;;8.29;83.23;100600.66;341982;28;1468;-77
2022/11/13 00:04:35;;;;;;;17.23;9.52;;;;;;;8.32;83.07;100602.38;342465;28;742;-77
2022/11/13 00:04:47;;;;;;;14.23;9.30;;;;;;;8.36;82.97;100610.09;342258;28;1202;-77
2022/11/13 00:04:59;;;;;;;12.93;9.32;;;;;;;8.40;83.02;100603.16;343458;28;1200;-77
2022/11/13 00:05:11;;;;;;;14.23;9.80;;;;;;;8.40;82.95;100598.81;343448;28;1123;-77
2022/11/13 00:05:23;;;;;;;16.55;9.68;;;;;;;8.42;82.60;100598.00;343108;28;1560;-77
2022/11/13 00:05:35;;;;;;;16.58;9.65;;;;;;;8.41;82.94;100594.56;343708;28;1721;-77
2022/11/13 00:05:47;;;;;;;18.55;9.68;;;;;;;8.44;82.78;100597.13;343503;28;1024;-77
2022/11/13 00:06:01;;;;;;;17.67;9.38;;;;;;;8.48;82.73;100598.81;344559;28;1820;-77
2022/11/13 00:06:14;;;;;;;15.27;9.23;;;;;;;8.51;82.74;100603.09;344857;28;1234;-77
2022/11/13 00:06:26;;;;;;;16.88;9.75;;;;;;;8.53;82.64;100601.34;344717;28;1235;-77
2022/11/13 00:06:38;;;;;;;15.25;9.85;;;;;;;8.55;82.81;100597.88;344039;28;1145;-77
2022/11/13 00:06:50;;;;;;;15.20;9.85;;;;;;;8.56;82.80;100593.56;343472;28;1202;-77
2022/11/13 00:07:09;;;;;;;20.33;10.10;;;;;;;8.58;82.45;100600.44;343285;28;1035;-77
2022/11/13 00:07:21;;;;;;;17.95;9.60;;;;;;;8.60;82.38;100597.84;343568;28;1979;-77
2022/11/13 00:07:33;;;;;;;14.23;9.75;;;;;;;8.59;82.32;100599.56;343380;28;2135;-77
2022/11/13 00:07:45;;;;;;;13.20;9.43;;;;;;;8.62;82.06;100597.81;343437;28;1722;-77
2022/11/13 00:07:57;;;;;;;12.85;9.32;;;;;;;8.63;82.21;100599.53;343479;28;1513;-77
2022/11/13 00:08:09;;;;;;;12.88;9.48;;;;;;;8.64;82.02;100593.50;344330;28;1763;-77
2022/11/13 00:08:21;;;;;;;13.38;9.40;;;;;;;8.66;82.28;100592.59;343227;28;1938;-77
2022/11/13 00:08:33;;;;;;;13.18;9.23;;;;;;;8.67;81.97;100599.50;343010;28;1419;-77
2022/11/13 00:08:46;;;;;;;14.65;9.50;;;;;;;8.70;81.98;100593.44;343458;28;1046;-77
2022/11/13 00:08:58;;;;;;;15.35;9.70;;;;;;;8.71;81.99;100596.00;343598;28;1102;-77
2022/11/13 00:09:10;;;;;;;15.85;9.82;;;;;;;8.69;81.81;100602.94;343111;28;1116;-77
2022/11/13 00:09:22;;;;;;;15.95;9.55;;;;;;;8.66;81.63;100597.78;344160;28;1204;-77
2022/11/13 00:09:34;;;;;;;15.68;9.50;;;;;;;8.65;81.57;100590.84;344827;28;1107;-77
2022/11/13 00:09:46;;;;;;;15.45;9.30;;;;;;;8.65;81.75;100595.19;344863;28;1098;-77
2022/11/13 00:09:58;;;;;;;14.00;9.27;;;;;;;8.67;81.70;100596.03;343559;28;1067;-77
2022/11/13 00:10:10;;;;;;;13.25;8.93;;;;;;;8.70;81.96;100593.44;344873;28;1099;-77
2022/11/13 00:10:22;;;;;;;12.10;8.90;;;;;;;8.64;81.72;100586.56;343630;28;1380;-77
2022/11/13 00:10:34;;;;;;;13.73;8.90;;;;;;;8.64;81.75;100599.53;341792;28;1073;-77
2022/11/13 00:10:46;;;;;;;14.50;9.27;;;;;;;8.64;81.68;100593.50;341906;28;920;-77
2022/11/13 00:11:07;;;;;;;12.98;9.00;;;;;;;8.63;81.82;100592.59;343285;28;1351;-77
2022/11/13 00:11:19;;;;;;;16.02;9.25;;;;;;;8.62;82.09;100590.91;343228;28;1247;-77
2022/11/13 00:11:31;;;;;;;15.63;9.25;;;;;;;8.65;81.78;100587.41;342136;28;1963;-77
2022/11/13 00:11:43;;;;;;;13.38;9.35;;;;;;;8.61;81.89;100589.16;341755;28;1630;-77
2022/11/13 00:11:55;;;;;;;14.57;9.48;;;;;;;8.55;82.05;100584.06;342355;28;1301;-75
2022/11/13 00:12:07;;;;;;;15.48;9.77;;;;;;;8.53;82.34;100590.97;342065;28;1051;-74
2022/11/13 00:12:19;;;;;;;17.20;9.75;;;;;;;8.54;82.18;100587.53;342200;28;1079;-77
2022/11/13 00:12:31;;;;;;;14.65;9.10;;;;;;;8.56;82.29;100585.78;342133;28;1123;-76
2022/11/13 00:12:43;;;;;;;12.73;8.82;;;;;;;8.58;82.40;100589.22;343406;28;1091;-76
2022/11/13 00:12:55;;;;;;;13.18;8.98;;;;;;;8.60;82.20;100590.06;343637;28;1075;-77
2022/11/13 00:13:07;;;;;;;13.63;9.10;;;;;;;8.61;82.07;100594.34;343367;28;1077;-76
2022/11/13 00:13:19;;;;;;;13.48;9.10;;;;;;;8.63;82.02;100583.97;343609;28;1083;-76
2022/11/13 00:13:32;;;;;;;15.00;9.38;;;;;;;8.63;82.07;100586.56;343456;28;1245;-76
2022/11/13 00:13:44;;;;;;;14.20;9.13;;;;;;;8.67;82.09;100589.13;344794;28;1088;-77
2022/11/13 00:13:56;;;;;;;12.05;8.60;;;;;;;8.70;81.88;100585.66;346148;28;1026;-77
2022/11/13 00:14:08;;;;;;;11.15;8.57;;;;;;;8.70;81.82;100589.09;345888;28;1061;-77
2022/11/13 00:14:20;;;;;;;11.48;8.55;;;;;;;8.72;81.78;100586.50;344599;28;1038;-77
2022/11/13 00:14:32;;;;;;;11.15;8.80;;;;;;;8.71;81.80;100588.25;344679;28;1196;-77
2022/11/13 00:14:44;;;;;;;11.35;8.80;;;;;;;8.73;81.89;100583.91;344080;28;1227;-77
2022/11/13 00:14:56;;;;;;;11.75;9.38;;;;;;;8.74;81.86;100590.78;343184;28;1030;-77
2022/11/13 00:15:08;;;;;;;12.60;9.45;;;;;;;8.76;81.80;100586.44;343256;28;1298;-77
2022/11/13 00:15:20;;;;;;;14.55;9.52;;;;;;;8.76;81.64;100586.44;342850;28;1722;-77
2022/11/13 00:15:32;;;;;;;14.30;9.05;;;;;;;8.76;81.53;100593.38;344700;28;1240;-77
2022/11/13 00:15:55;;;;;;;13.25;8.77;;;;;;;8.77;81.52;100587.28;345132;28;1078;-77
2022/11/13 00:16:11;;;;;;;12.60;9.02;;;;;;;8.79;81.31;100586.41;342468;28;1039;-77
2022/11/13 00:16:23;;;;;;;12.48;8.93;;;;;;;8.79;81.46;100586.41;342303;28;1209;-77
2022/11/13 00:16:35;;;;;;;12.18;8.63;;;;;;;8.79;81.21;100589.00;343188;28;1187;-77
2022/11/13 00:16:47;;;;;;;12.48;9.15;;;;;;;8.79;81.13;100589.00;342207;28;1265;-77
2022/11/13 00:16:59;;;;;;;13.57;9.60;;;;;;;8.79;81.50;100593.31;342068;28;1062;-77
2022/11/13 00:17:10;;;;;;;12.98;9.38;;;;;;;8.80;81.40;100584.69;342014;28;1007;-77
2022/11/13 00:17:22;;;;;;;12.70;9.27;;;;;;;8.79;81.46;100594.19;342835;28;1180;-77
2022/11/13 00:17:34;;;;;;;13.85;9.13;;;;;;;8.84;81.54;100590.69;343467;28;1023;-77
2022/11/13 00:17:46;;;;;;;15.53;9.40;;;;;;;8.82;81.31;100588.13;343251;28;1143;-77
2022/11/13 00:18:02;;;;;;;14.68;9.52;;;;;;;8.80;81.16;100589.88;343309;28;1028;-77
2022/11/13 00:18:14;;;;;;;12.95;9.38;;;;;;;8.77;81.52;100590.75;344490;28;1775;-77
2022/11/13 00:18:28;;;;;;;12.13;9.20;;;;;;;8.75;81.24;100587.34;344992;28;1150;-77
2022/11/13 00:18:41;;;;;;;11.73;9.15;;;;;;;8.74;81.39;100590.78;344824;28;1569;-77
2022/11/13 00:18:53;;;;;;;12.80;9.30;;;;;;;8.78;81.24;100589.88;344759;28;1394;-77
2022/11/13 00:19:05;;;;;;;12.70;9.00;;;;;;;8.82;81.33;100587.25;344401;28;1306;-77
2022/11/13 00:19:17;;;;;;;12.23;8.98;;;;;;;8.82;81.18;100592.44;344786;28;1067;-77
2022/11/13 00:19:29;;;;;;;11.30;8.63;;;;;;;8.82;81.40;100592.44;345015;28;1078;-77
2022/11/13 00:19:41;;;;;;;11.63;9.02;;;;;;;8.82;81.24;100587.25;344897;28;1191;-77
2022/11/13 00:19:53;;;;;;;11.15;8.70;;;;;;;8.81;81.21;100591.56;345088;28;887;-77
2022/11/13 00:20:05;;;;;;;11.45;8.48;;;;;;;8.78;81.05;100589.88;342379;28;1220;-77
2022/11/13 00:20:17;;;;;;;11.88;8.70;;;;;;;8.75;81.14;100592.50;340851;28;1631;-77
2022/11/13 00:20:29;;;;;;;14.40;9.15;;;;;;;8.74;81.15;100590.78;342272;28;1553;-77
2022/11/13 00:20:41;;;;;;;14.05;9.15;;;;;;;8.79;81.22;100585.53;343419;28;1171;-77
2022/11/13 00:20:53;;;;;;;14.43;9.25;;;;;;;8.82;81.26;100593.31;343422;28;1066;-77
2022/11/13 00:21:17;;;;;;;12.40;9.00;;;;;;;8.82;81.31;100587.25;343068;28;1657;-77
2022/11/13 00:21:29;;;;;;;13.77;8.38;;;;;;;8.82;81.22;100597.63;342522;28;1755;-77
2022/11/13 00:21:41;;;;;;;15.23;8.63;;;;;;;8.80;81.00;100585.53;340968;29;1143;-77
2022/11/13 00:21:53;;;;;;;14.52;8.88;;;;;;;8.79;81.16;100591.59;340174;28;2053;-77
2022/11/13 00:22:05;;;;;;;11.18;8.85;;;;;;;8.82;81.13;100587.25;340959;28;1684;-77
2022/11/13 00:22:17;;;;;;;12.38;9.20;;;;;;;8.82;81.14;100588.13;341569;28;1607;-77
2022/11/13 00:22:29;;;;;;;12.18;9.10;;;;;;;8.79;81.17;100594.19;342558;28;2277;-77
2022/11/13 00:22:41;;;;;;;11.52;8.88;;;;;;;8.79;80.96;100589.00;343328;28;1019;-77
2022/11/13 00:22:53;;;;;;;11.48;8.70;;;;;;;8.80;81.07;100590.72;342063;28;1084;-77
2022/11/13 00:23:05;;;;;;;11.00;8.50;;;;;;;8.82;81.00;100587.25;341829;28;1226;-77
2022/11/13 00:23:17;;;;;;;11.10;8.50;;;;;;;8.82;81.13;100587.25;342222;28;1219;-77
2022/11/13 00:23:33;;;;;;;10.60;8.50;;;;;;;8.79;81.11;100583.84;342200;28;1256;-77
2022/11/13 00:23:45;;;;;;;10.85;8.90;;;;;;;8.80;80.90;100585.53;342294;28;1042;-77
2022/11/13 00:23:57;;;;;;;11.48;9.13;;;;;;;8.82;80.85;100587.25;341695;28;1431;-77
2022/11/13 00:24:09;;;;;;;11.02;8.70;;;;;;;8.79;81.24;100586.41;342117;28;1036;-77
2022/11/13 00:24:21;;;;;;;11.60;8.65;;;;;;;8.74;81.28;100589.94;341772;28;1177;-77
2022/11/13 00:24:33;;;;;;;12.55;9.00;;;;;;;8.73;81.37;100589.09;341249;28;1163;-77
2022/11/13 00:24:45;;;;;;;12.75;9.25;;;;;;;8.72;81.13;100591.69;339578;29;1028;-77
2022/11/13 00:24:57;;;;;;;12.85;9.38;;;;;;;8.74;81.21;100584.75;338818;29;1268;-77
2022/11/13 00:25:09;;;;;;;11.88;8.95;;;;;;;8.75;81.13;100586.44;339188;29;942;-77
2022/11/13 00:25:21;;;;;;;11.88;8.45;;;;;;;8.75;81.28;100584.75;339501;28;2038;-77
2022/11/13 00:25:34;;;;;;;11.07;8.00;;;;;;;8.78;81.05;100583.84;340718;29;1080;-77
2022/11/13 00:25:46;;;;;;;11.40;8.50;;;;;;;8.76;81.08;100583.84;341305;28;1084;-77
2022/11/13 00:26:03;;;;;;;12.40;9.03;;;;;;;8.78;81.47;100587.28;342342;28;1207;-77
2022/11/13 00:26:23;;;;;;;12.43;9.05;;;;;;;8.79;80.93;100589.00;342091;28;1098;-77
2022/11/13 00:26:35;;;;;;;11.77;8.65;;;;;;;8.81;81.21;100581.19;341489;28;950;-77
2022/11/13 00:26:47;;;;;;;12.55;8.93;;;;;;;8.83;80.97;100589.81;342688;28;1020;-77
2022/11/13 00:26:59;;;;;;;12.77;8.52;;;;;;;8.79;80.95;100578.66;343600;28;1687;-77
2022/11/13 00:27:12;;;;;;;12.85;8.27;;;;;;;8.82;80.93;100582.09;344618;28;1202;-77
2022/11/13 00:27:24;;;;;;;13.55;8.63;;;;;;;8.82;80.92;100582.09;343071;28;1235;-77
2022/11/13 00:27:36;;;;;;;12.48;8.73;;;;;;;8.82;80.93;100580.34;343378;28;1193;-77
2022/11/13 00:27:47;;;;;;;12.80;8.88;;;;;;;8.82;80.88;100579.50;343500;28;1179;-77
2022/11/13 00:27:59;;;;;;;11.32;8.88;;;;;;;8.85;81.36;100592.41;343469;28;1053;-77
2022/11/13 00:28:11;;;;;;;11.57;9.23;;;;;;;8.84;81.02;100588.09;343677;28;1375;-77
2022/11/13 00:28:23;;;;;;;12.27;9.25;;;;;;;8.86;80.95;100583.75;342684;28;1234;-77
2022/11/13 00:28:36;;;;;;;12.13;8.98;;;;;;;8.84;80.79;100585.50;342303;28;1355;-77
2022/11/13 00:28:53;;;;;;;11.60;8.60;;;;;;;8.83;80.70;100583.78;343316;28;1622;-77
2022/11/13 00:29:05;;;;;;;11.40;8.30;;;;;;;8.84;80.84;100582.94;343135;28;1090;-77
2022/11/13 00:29:17;;;;;;;10.90;8.38;;;;;;;8.86;81.05;100586.34;342486;28;1605;-78
2022/11/13 00:29:28;;;;;;;10.70;8.57;;;;;;;8.86;80.85;100583.75;344077;28;1082;-77
2022/11/13 00:29:40;;;;;;;10.55;8.52;;;;;;;8.83;80.79;100588.97;344945;28;1178;-77
2022/11/13 00:29:52;;;;;;;10.93;8.55;;;;;;;8.85;80.76;100582.88;346334;28;1127;-77
2022/11/13 00:30:05;;;;;;;10.88;8.43;;;;;;;8.84;80.77;100585.50;346048;28;1106;-77
2022/11/13 00:30:17;;;;;;;10.88;8.32;;;;;;;8.79;80.76;100583.84;345564;28;1910;-77
2022/11/13 00:30:30;;;;;;;10.90;8.25;;;;;;;8.79;80.71;100583.84;343722;28;1194;-77
2022/11/13 00:30:42;;;;;;;11.52;8.57;;;;;;;8.78;80.77;100581.25;343470;28;1074;-77
2022/11/13 00:30:58;;;;;;;11.75;8.70;;;;;;;8.79;80.57;100577.75;343777;28;1125;-77
2022/11/13 00:31:12;;;;;;;11.52;8.60;;;;;;;8.77;80.67;100585.59;343622;28;1217;-77
2022/11/13 00:31:27;;;;;;;11.75;8.63;;;;;;;8.75;80.38;100581.25;344348;28;1080;-77
2022/11/13 00:31:38;;;;;;;12.70;8.68;;;;;;;8.77;80.15;100580.41;345003;28;1087;-77
2022/11/13 00:31:50;;;;;;;12.70;8.45;;;;;;;8.75;80.55;100578.66;345107;28;1059;-77
2022/11/13 00:32:03;;;;;;;12.93;8.27;;;;;;;8.77;80.42;100583.00;345031;28;1027;-77
2022/11/13 00:32:15;;;;;;;12.85;8.63;;;;;;;8.76;80.68;100577.81;344897;28;1208;-77
2022/11/13 00:32:27;;;;;;;12.45;9.02;;;;;;;8.73;80.45;100578.72;344882;28;1058;-77
2022/11/13 00:32:39;;;;;;;11.43;8.73;;;;;;;8.73;80.66;100583.00;345088;28;1031;-77
2022/11/13 00:32:51;;;;;;;11.32;8.73;;;;;;;8.70;80.72;100578.72;345113;28;1159;-77
2022/11/13 00:33:03;;;;;;;11.60;8.73;;;;;;;8.70;80.72;100586.50;344783;28;1190;-77
2022/11/13 00:33:14;;;;;;;13.70;8.93;;;;;;;8.67;80.67;100583.97;345104;28;1205;-77
2022/11/13 00:33:47;;;;;;;10.52;8.48;;;;;;;8.60;80.64;100583.13;344737;28;1413;-77
2022/11/13 00:34:19;;;;;;;11.13;8.68;;;;;;;8.58;80.76;100584.03;343833;28;1513;-77
2022/11/13 00:34:51;;;;;;;10.60;8.10;;;;;;;8.58;81.29;100584.03;343347;28;1607;-77
2022/11/13 00:35:04;;;;;;;10.00;8.00;;;;;;;8.55;81.08;100584.06;343694;28;1087;-77
2022/11/13 00:35:16;;;;;;;10.05;8.32;;;;;;;8.56;81.16;100581.44;343657;28;1074;-77
2022/11/13 00:35:27;;;;;;;10.32;8.52;;;;;;;8.55;80.90;100584.06;343584;28;1206;-77
2022/11/13 00:35:39;;;;;;;11.15;8.80;;;;;;;8.54;81.21;100582.34;343552;28;1179;-77
2022/11/13 00:35:51;;;;;;;11.13;8.85;;;;;;;8.54;81.12;100583.19;343456;28;1165;-77
2022/11/13 00:36:06;;;;;;;12.27;8.68;;;;;;;8.55;81.13;100584.06;344018;28;1438;-77
2022/11/13 00:36:23;;;;;;;12.52;8.52;;;;;;;8.50;81.25;100580.66;344827;28;1287;-77
2022/11/13 00:36:37;;;;;;;11.68;8.68;;;;;;;8.52;81.31;100581.50;345114;28;1067;-77
2022/11/13 00:36:49;;;;;;;11.52;8.43;;;;;;;8.54;81.07;100587.53;344688;28;1051;-77
2022/11/13 00:37:01;;;;;;;11.68;8.65;;;;;;;8.54;81.20;100582.34;344859;28;1191;-77
2022/11/13 00:37:13;;;;;;;11.57;8.68;;;;;;;8.52;81.19;100584.94;344139;28;2562;-77
2022/11/13 00:37:25;;;;;;;10.48;8.43;;;;;;;8.51;81.10;100583.25;344207;28;1688;-77
2022/11/13 00:37:37;;;;;;;10.55;8.38;;;;;;;8.48;81.27;100577.22;343477;28;1213;-77
2022/11/13 00:37:49;;;;;;;10.35;8.35;;;;;;;8.50;81.09;100583.25;343643;28;1258;-77
2022/11/13 00:38:00;;;;;;;11.60;8.68;;;;;;;8.51;81.29;100582.34;344747;28;1123;-77
2022/11/13 00:38:12;;;;;;;11.75;8.80;;;;;;;8.50;81.19;100580.66;344716;28;1105;-77
2022/11/13 00:38:24;;;;;;;11.27;8.88;;;;;;;8.49;81.45;100584.09;344744;28;1215;-77
2022/11/13 00:38:37;;;;;;;11.02;8.70;;;;;;;8.46;81.59;100576.38;344381;28;1366;-77
2022/11/13 00:38:49;;;;;;;10.55;8.57;;;;;;;8.46;81.50;100578.97;343983;28;733;-77
2022/11/13 00:39:01;;;;;;;10.63;8.57;;;;;;;8.49;81.50;100586.69;343581;28;1184;-77
2022/11/13 00:39:13;;;;;;;11.40;8.60;;;;;;;8.42;81.57;100577.28;343355;28;1091;-77
2022/11/13 00:39:25;;;;;;;11.52;8.43;;;;;;;8.44;81.72;100575.53;344139;28;2870;-77
2022/11/13 00:39:37;;;;;;;11.70;8.65;;;;;;;8.43;81.77;100578.97;345085;28;1081;-77
2022/11/13 00:39:49;;;;;;;11.35;8.50;;;;;;;8.45;81.76;100577.22;344440;28;1134;-77
2022/11/13 00:40:05;;;;;;;10.65;8.35;;;;;;;8.44;81.69;100580.72;344323;28;1915;-77
2022/11/13 00:40:17;;;;;;;11.55;8.63;;;;;;;8.46;81.71;100578.97;344559;28;1237;-77
2022/11/13 00:40:29;;;;;;;11.20;8.57;;;;;;;8.46;81.79;100578.97;344761;28;1191;-77
2022/11/13 00:40:41;;;;;;;10.77;8.48;;;;;;;8.48;81.68;100574.63;344738;28;1142;-77
2022/11/13 00:40:53;;;;;;;10.65;8.55;;;;;;;8.48;81.59;100583.25;344845;28;1087;-77
2022/11/13 00:41:05;;;;;;;10.95;8.90;;;;;;;8.48;81.76;100574.63;343994;28;1226;-77
2022/11/13 00:41:17;;;;;;;10.65;8.63;;;;;;;8.50;81.75;100575.47;343672;28;1268;-77
2022/11/13 00:41:29;;;;;;;10.65;8.55;;;;;;;8.48;81.70;100580.66;343450;28;1039;-77
2022/11/13 00:41:41;;;;;;;10.93;8.60;;;;;;;8.50;81.57;100575.47;343574;28;1043;-77
2022/11/13 00:41:53;;;;;;;11.05;8.68;;;;;;;8.48;81.66;100579.81;343397;28;1153;-77
2022/11/13 00:42:05;;;;;;;11.23;8.57;;;;;;;8.48;81.63;100574.63;343697;28;1186;-77
2022/11/13 00:42:17;;;;;;;11.32;8.50;;;;;;;8.51;81.57;100579.78;343524;28;1351;-77
2022/11/13 00:42:29;;;;;;;11.77;8.68;;;;;;;8.50;81.64;100580.66;344585;28;1174;-77
2022/11/13 00:42:41;;;;;;;11.40;8.40;;;;;;;8.49;81.73;100573.75;343997;28;1250;-77
2022/11/13 00:42:53;;;;;;;11.85;8.55;;;;;;;8.44;81.54;100571.19;343359;28;1035;-77
2022/11/13 00:43:04;;;;;;;11.63;8.48;;;;;;;8.43;81.87;100571.22;343444;28;1628;-77
2022/11/13 00:43:16;;;;;;;11.73;8.77;;;;;;;8.45;81.96;100572.94;343548;28;1151;-77
2022/11/13 00:43:28;;;;;;;11.68;8.80;;;;;;;8.46;81.59;100573.78;344750;28;1710;-77
2022/11/13 00:43:41;;;;;;;11.30;8.70;;;;;;;8.48;81.86;100577.22;344856;28;1177;-77
2022/11/13 00:43:53;;;;;;;11.15;8.65;;;;;;;8.50;81.78;100585.84;344784;28;1095;-77
2022/11/13 00:44:05;;;;;;;10.98;8.57;;;;;;;8.50;81.52;100575.47;344718;28;903;-77
2022/11/13 00:44:17;;;;;;;10.73;8.50;;;;;;;8.50;81.69;100575.47;343660;28;1301;-77
2022/11/13 00:44:29;;;;;;;10.77;8.52;;;;;;;8.50;81.61;100576.31;343459;28;1087;-77
2022/11/13 00:44:41;;;;;;;11.10;8.52;;;;;;;8.50;81.59;100576.31;343049;28;1072;-77
2022/11/13 00:44:53;;;;;;;11.25;8.63;;;;;;;8.52;81.63;100578.91;343405;28;1035;-77
2022/11/13 00:45:07;;;;;;;10.50;8.68;;;;;;;8.54;81.46;100578.00;343468;28;1534;-77
2022/11/13 00:45:19;;;;;;;10.15;8.50;;;;;;;8.50;81.65;100576.31;343711;28;1200;-77
2022/11/13 00:45:31;;;;;;;10.35;8.43;;;;;;;8.50;81.06;100571.16;344740;28;1059;-77
2022/11/13 00:45:43;;;;;;;10.50;8.43;;;;;;;8.50;81.55;100571.16;344551;28;1035;-77
2022/11/13 00:45:55;;;;;;;10.50;8.27;;;;;;;8.52;81.59;100569.41;342168;28;1166;-77
2022/11/13 00:46:08;;;;;;;10.52;8.07;;;;;;;8.53;81.27;100565.06;340553;29;872;-77
2022/11/13 00:46:20;;;;;;;11.38;8.43;;;;;;;8.56;81.35;100565.91;341495;28;1077;-77
2022/11/13 00:46:32;;;;;;;11.57;8.52;;;;;;;8.54;81.36;100577.16;342899;28;1259;-77
2022/11/13 00:46:43;;;;;;;11.30;8.43;;;;;;;8.54;81.37;100570.25;342147;28;1064;-77
2022/11/13 00:46:55;;;;;;;11.38;8.32;;;;;;;8.53;81.53;100570.25;342171;28;1068;-77
2022/11/13 00:47:07;;;;;;;11.38;8.68;;;;;;;8.51;81.73;100567.69;342166;28;1111;-77
2022/11/13 00:47:19;;;;;;;11.90;8.88;;;;;;;8.50;81.43;100570.28;342465;28;798;-77
2022/11/13 00:47:31;;;;;;;11.57;8.60;;;;;;;8.51;81.56;100570.28;341996;28;1171;-76
2022/11/13 00:47:43;;;;;;;11.07;8.45;;;;;;;8.47;81.75;100570.31;342014;28;1153;-77
2022/11/13 00:47:55;;;;;;;10.63;8.32;;;;;;;8.44;82.03;100570.34;342156;28;1377;-77
2022/11/13 00:48:07;;;;;;;10.40;8.35;;;;;;;8.47;81.99;100565.13;341920;28;1464;-77
2022/11/13 00:48:19;;;;;;;9.85;8.30;;;;;;;8.49;81.99;100568.56;342781;28;1237;-77
2022/11/13 00:48:31;;;;;;;10.25;8.30;;;;;;;8.44;81.82;100565.16;343567;28;1406;-77
2022/11/13 00:48:43;;;;;;;11.00;8.35;;;;;;;8.43;81.91;100566.03;343875;28;1007;-77
2022/11/13 00:48:55;;;;;;;11.30;8.63;;;;;;;8.38;81.85;100561.72;342465;28;1261;-77
2022/11/13 00:49:07;;;;;;;11.18;8.68;;;;;;;8.25;82.23;100564.41;341489;28;1131;-77
2022/11/13 00:49:19;;;;;;;13.00;8.93;;;;;;;8.16;82.36;100562.78;341916;28;1220;-77
2022/11/13 00:49:31;;;;;;;14.60;8.95;;;;;;;8.19;82.49;100557.59;342157;28;1146;-77
2022/11/13 00:49:43;;;;;;;13.65;8.77;;;;;;;8.24;82.36;100553.22;342172;28;1084;-77
2022/11/13 00:49:55;;;;;;;10.95;8.45;;;;;;;8.27;82.77;100562.69;342135;28;1104;-77
2022/11/13 00:50:07;;;;;;;10.68;8.48;;;;;;;8.31;82.65;100560.06;342387;28;1232;-77
2022/11/13 00:50:19;;;;;;;10.57;8.65;;;;;;;8.33;82.62;100563.50;342508;28;2036;-77
2022/11/13 00:50:31;;;;;;;10.15;8.30;;;;;;;8.37;82.66;100561.72;342901;28;1922;-77
2022/11/13 00:50:43;;;;;;;11.35;8.35;;;;;;;8.33;82.59;100562.63;342078;28;1215;-77
2022/11/13 00:50:55;;;;;;;12.30;8.88;;;;;;;8.30;82.62;100563.50;341546;28;1173;-77
2022/11/13 00:51:07;;;;;;;13.02;9.07;;;;;;;8.33;82.72;100560.03;342033;28;1014;-77
2022/11/13 00:51:20;;;;;;;11.25;8.63;;;;;;;8.36;82.44;100557.44;342165;28;1240;-77
2022/11/13 00:51:31;;;;;;;11.20;8.57;;;;;;;8.34;82.21;100560.03;342106;28;1051;-77
2022/11/13 00:51:43;;;;;;;11.27;8.90;;;;;;;8.37;82.41;100557.41;342248;28;1067;-77
2022/11/13 00:51:55;;;;;;;11.45;9.00;;;;;;;8.39;82.52;100563.44;342263;28;1304;-77
2022/11/13 00:52:07;;;;;;;11.55;8.93;;;;;;;8.43;82.50;100558.25;342329;28;1910;-77
2022/11/13 00:52:19;;;;;;;12.52;9.15;;;;;;;8.47;82.33;100562.53;342893;28;1619;-77
2022/11/13 00:52:31;;;;;;;12.90;9.32;;;;;;;8.49;82.30;100560.78;344472;28;1482;-77
2022/11/13 00:52:43;;;;;;;12.82;9.00;;;;;;;8.50;82.33;100565.09;343394;28;1110;-77
2022/11/13 00:52:55;;;;;;;12.40;8.68;;;;;;;8.49;82.08;100559.06;343253;28;1039;-77
2022/11/13 00:53:07;;;;;;;11.60;8.48;;;;;;;8.53;82.25;100559.88;343793;28;1204;-77
2022/11/13 00:53:22;;;;;;;11.20;8.63;;;;;;;8.57;82.12;100561.56;343315;28;1361;-77
2022/11/13 00:53:34;;;;;;;12.13;9.07;;;;;;;8.58;81.97;100563.31;343946;28;1050;-77
2022/11/13 00:53:46;;;;;;;12.05;9.07;;;;;;;8.62;81.96;100559.81;342323;28;1202;-77
2022/11/13 00:53:58;;;;;;;12.02;8.63;;;;;;;8.62;82.18;100559.81;341827;28;1179;-77
2022/11/13 00:54:10;;;;;;;11.10;8.15;;;;;;;8.63;81.63;100556.31;342324;28;1078;-77
2022/11/13 00:54:22;;;;;;;10.35;8.13;;;;;;;8.64;81.94;100563.25;342968;28;1161;-77
2022/11/13 00:54:34;;;;;;;10.40;8.63;;;;;;;8.66;81.91;100556.31;343320;28;1070;-77
2022/11/13 00:54:46;;;;;;;11.10;8.85;;;;;;;8.68;81.61;100559.75;343278;28;1106;-77
2022/11/13 00:54:58;;;;;;;11.80;8.82;;;;;;;8.68;81.57;100559.75;343655;28;1158;-77
2022/11/13 00:55:10;;;;;;;12.20;8.85;;;;;;;8.68;81.53;100561.47;343406;28;1032;-77
2022/11/13 00:55:22;;;;;;;11.80;8.65;;;;;;;8.65;81.51;100554.56;344017;28;1200;-77
2022/11/13 00:55:34;;;;;;;11.15;8.55;;;;;;;8.68;81.62;100559.75;343443;28;1022;-77
2022/11/13 00:55:46;;;;;;;11.23;8.45;;;;;;;8.67;81.28;100560.63;342088;28;1323;-77
2022/11/13 00:55:59;;;;;;;11.00;8.43;;;;;;;8.70;81.60;100557.13;343405;28;1198;-77
2022/11/13 00:56:11;;;;;;;10.98;8.70;;;;;;;8.71;81.59;100564.91;343485;28;1119;-77
2022/11/13 00:56:23;;;;;;;10.88;8.60;;;;;;;8.72;81.31;100565.75;343461;28;1138;-77
2022/11/13 00:56:35;;;;;;;11.65;8.38;;;;;;;8.74;81.37;100564.84;343274;28;1195;-77
2022/11/13 00:56:47;;;;;;;11.85;8.65;;;;;;;8.75;81.33;100566.59;343518;28;1099;-77
2022/11/13 00:56:59;;;;;;;11.07;8.50;;;;;;;8.74;81.22;100564.84;343356;28;1112;-77
2022/11/13 00:57:10;;;;;;;10.70;8.52;;;;;;;8.76;81.05;100562.25;343346;28;1228;-77
2022/11/13 00:57:22;;;;;;;10.52;8.65;;;;;;;8.76;81.34;100570.88;343939;28;1587;-77
2022/11/13 00:57:34;;;;;;;11.63;8.95;;;;;;;8.75;81.20;100561.41;343745;28;1422;-77
2022/11/13 00:57:46;;;;;;;11.80;8.90;;;;;;;8.76;81.10;100562.25;344772;28;1114;-77
2022/11/13 00:57:58;;;;;;;10.32;8.30;;;;;;;8.77;80.90;100562.25;345040;28;1196;-77
2022/11/13 00:58:11;;;;;;;11.60;8.50;;;;;;;8.82;81.09;100566.53;344650;28;1070;-77
2022/11/13 00:58:23;;;;;;;12.05;8.57;;;;;;;8.81;80.76;100560.47;343729;28;1229;-77
2022/11/13 00:58:35;;;;;;;10.93;8.43;;;;;;;8.76;80.59;100559.66;343369;28;1276;-77
2022/11/13 00:58:47;;;;;;;10.95;8.50;;;;;;;8.75;80.55;100564.00;343368;28;1240;-77
2022/11/13 00:58:59;;;;;;;11.30;8.70;;;;;;;8.75;80.51;100561.41;343146;28;1202;-77
2022/11/13 00:59:11;;;;;;;11.52;8.63;;;;;;;8.76;80.49;100562.25;342954;28;1030;-77
2022/11/13 00:59:23;;;;;;;11.85;8.68;;;;;;;8.77;80.74;100563.97;343445;28;1295;-77
2022/11/13 00:59:35;;;;;;;11.77;8.52;;;;;;;8.78;80.83;100561.34;343464;28;1228;-77
2022/11/13 00:59:47;;;;;;;10.88;8.30;;;;;;;8.77;80.62;100554.47;343847;28;947;-77
2022/11/13 00:59:59;;;;;;;10.20;8.07;;;;;;;8.76;80.67;100563.09;343439;28;1054;-77
2022/11/13 01:00:11;;;;;;;11.20;8.40;;;;;;;8.69;80.67;100566.66;343484;28;1115;-77